sensor_id;sensor_type;location;lat;lon;timestamp;temperature;humidity
10121;DHT22;5100;45.176;5.714;2023-04-03T00:01:02;13.50;71.10
10121;DHT22;5100;45.176;5.714;2023-04-03T00:03:29;13.50;71.20
10121;DHT22;5100;45.176;5.714;2023-04-03T00:05:55;13.50;71.00
10121;DHT22;5100;45.176;5.714;2023-04-03T00:08:21;13.50;70.90
10121;DHT22;5100;45.176;5.714;2023-04-03T00:10:48;13.50;70.80
10121;DHT22;5100;45.176;5.714;2023-04-03T00:13:14;13.50;70.70
10121;DHT22;5100;45.176;5.714;2023-04-03T00:15:41;13.50;70.70
10121;DHT22;5100;45.176;5.714;2023-04-03T00:18:08;13.50;70.50
10121;DHT22;5100;45.176;5.714;2023-04-03T00:20:34;13.50;70.50
10121;DHT22;5100;45.176;5.714;2023-04-03T00:23:01;13.50;70.60
10121;DHT22;5100;45.176;5.714;2023-04-03T00:25:27;13.50;70.70
10121;DHT22;5100;45.176;5.714;2023-04-03T00:27:54;13.50;70.60
10121;DHT22;5100;45.176;5.714;2023-04-03T00:30:21;13.50;70.50
10121;DHT22;5100;45.176;5.714;2023-04-03T00:32:49;13.50;70.40
10121;DHT22;5100;45.176;5.714;2023-04-03T00:35:15;13.50;70.30
10121;DHT22;5100;45.176;5.714;2023-04-03T00:37:42;13.40;70.40
10121;DHT22;5100;45.176;5.714;2023-04-03T00:40:10;13.40;70.70
10121;DHT22;5100;45.176;5.714;2023-04-03T00:42:38;13.40;70.90
10121;DHT22;5100;45.176;5.714;2023-04-03T00:47:32;13.40;71.10
10121;DHT22;5100;45.176;5.714;2023-04-03T00:49:58;13.50;70.90
10121;DHT22;5100;45.176;5.714;2023-04-03T00:52:28;13.40;70.90
10121;DHT22;5100;45.176;5.714;2023-04-03T00:55:00;13.50;70.90
10121;DHT22;5100;45.176;5.714;2023-04-03T00:57:29;13.40;71.00
10121;DHT22;5100;45.176;5.714;2023-04-03T01:00:03;13.40;71.10
10121;DHT22;5100;45.176;5.714;2023-04-03T01:02:31;13.50;71.10
10121;DHT22;5100;45.176;5.714;2023-04-03T01:04:58;13.40;71.20
10121;DHT22;5100;45.176;5.714;2023-04-03T01:07:29;13.40;71.40
10121;DHT22;5100;45.176;5.714;2023-04-03T01:09:58;13.40;71.40
10121;DHT22;5100;45.176;5.714;2023-04-03T01:12:31;13.40;71.40
10121;DHT22;5100;45.176;5.714;2023-04-03T01:15:08;13.40;71.40
10121;DHT22;5100;45.176;5.714;2023-04-03T01:17:41;13.40;71.10
10121;DHT22;5100;45.176;5.714;2023-04-03T01:23:30;13.40;71.10
10121;DHT22;5100;45.176;5.714;2023-04-03T01:25:58;13.40;71.20
10121;DHT22;5100;45.176;5.714;2023-04-03T01:28:34;13.40;71.20
10121;DHT22;5100;45.176;5.714;2023-04-03T01:31:25;13.40;71.20
10121;DHT22;5100;45.176;5.714;2023-04-03T01:33:53;13.40;71.20
10121;DHT22;5100;45.176;5.714;2023-04-03T01:36:22;13.40;71.20
10121;DHT22;5100;45.176;5.714;2023-04-03T01:38:49;13.40;71.20
10121;DHT22;5100;45.176;5.714;2023-04-03T01:41:16;13.40;71.20
10121;DHT22;5100;45.176;5.714;2023-04-03T01:43:44;13.40;71.20
10121;DHT22;5100;45.176;5.714;2023-04-03T01:46:10;13.40;71.10
10121;DHT22;5100;45.176;5.714;2023-04-03T01:48:37;13.40;71.00
10121;DHT22;5100;45.176;5.714;2023-04-03T01:51:04;13.40;71.00
10121;DHT22;5100;45.176;5.714;2023-04-03T01:53:30;13.40;70.70
10121;DHT22;5100;45.176;5.714;2023-04-03T01:55:57;13.40;70.70
10121;DHT22;5100;45.176;5.714;2023-04-03T01:58:23;13.40;70.70
10121;DHT22;5100;45.176;5.714;2023-04-03T02:00:51;13.40;70.70
10121;DHT22;5100;45.176;5.714;2023-04-03T02:03:18;13.40;70.70
10121;DHT22;5100;45.176;5.714;2023-04-03T02:05:45;13.40;70.70
10121;DHT22;5100;45.176;5.714;2023-04-03T02:08:11;13.40;70.50
10121;DHT22;5100;45.176;5.714;2023-04-03T02:10:38;13.40;70.70
10121;DHT22;5100;45.176;5.714;2023-04-03T02:13:05;13.40;70.70
10121;DHT22;5100;45.176;5.714;2023-04-03T02:15:31;13.40;70.70
10121;DHT22;5100;45.176;5.714;2023-04-03T02:17:58;13.40;70.60
10121;DHT22;5100;45.176;5.714;2023-04-03T02:20:26;13.40;70.60
10121;DHT22;5100;45.176;5.714;2023-04-03T02:22:52;13.40;70.50
10121;DHT22;5100;45.176;5.714;2023-04-03T02:25:18;13.40;70.40
10121;DHT22;5100;45.176;5.714;2023-04-03T02:27:44;13.40;70.60
10121;DHT22;5100;45.176;5.714;2023-04-03T02:30:11;13.40;70.70
10121;DHT22;5100;45.176;5.714;2023-04-03T02:32:37;13.40;70.70
10121;DHT22;5100;45.176;5.714;2023-04-03T02:35:03;13.40;70.80
10121;DHT22;5100;45.176;5.714;2023-04-03T02:37:30;13.40;70.90
10121;DHT22;5100;45.176;5.714;2023-04-03T02:39:57;13.40;71.00
10121;DHT22;5100;45.176;5.714;2023-04-03T02:42:24;13.40;71.00
10121;DHT22;5100;45.176;5.714;2023-04-03T02:44:50;13.40;71.10
10121;DHT22;5100;45.176;5.714;2023-04-03T02:47:17;13.30;71.20
10121;DHT22;5100;45.176;5.714;2023-04-03T02:49:43;13.40;71.20
10121;DHT22;5100;45.176;5.714;2023-04-03T02:52:12;13.40;71.20
10121;DHT22;5100;45.176;5.714;2023-04-03T02:54:39;13.40;71.10
10121;DHT22;5100;45.176;5.714;2023-04-03T02:57:06;13.30;71.30
10121;DHT22;5100;45.176;5.714;2023-04-03T02:59:36;13.30;71.40
10121;DHT22;5100;45.176;5.714;2023-04-03T03:02:03;13.30;71.30
10121;DHT22;5100;45.176;5.714;2023-04-03T03:04:29;13.30;71.30
10121;DHT22;5100;45.176;5.714;2023-04-03T03:06:56;13.30;71.30
10121;DHT22;5100;45.176;5.714;2023-04-03T03:09:22;13.30;71.40
10121;DHT22;5100;45.176;5.714;2023-04-03T03:11:48;13.30;71.50
10121;DHT22;5100;45.176;5.714;2023-04-03T03:14:15;13.30;71.30
10121;DHT22;5100;45.176;5.714;2023-04-03T03:16:42;13.30;71.50
10121;DHT22;5100;45.176;5.714;2023-04-03T03:19:08;13.30;71.50
10121;DHT22;5100;45.176;5.714;2023-04-03T03:21:34;13.30;71.50
10121;DHT22;5100;45.176;5.714;2023-04-03T03:24:01;13.30;71.50
10121;DHT22;5100;45.176;5.714;2023-04-03T03:26:27;13.30;71.50
10121;DHT22;5100;45.176;5.714;2023-04-03T03:28:54;13.30;71.40
10121;DHT22;5100;45.176;5.714;2023-04-03T03:31:21;13.30;71.40
10121;DHT22;5100;45.176;5.714;2023-04-03T03:33:47;13.30;71.40
10121;DHT22;5100;45.176;5.714;2023-04-03T03:36:13;13.30;71.40
10121;DHT22;5100;45.176;5.714;2023-04-03T03:38:40;13.20;71.20
10121;DHT22;5100;45.176;5.714;2023-04-03T03:41:08;13.20;71.20
10121;DHT22;5100;45.176;5.714;2023-04-03T03:43:35;13.20;71.40
10121;DHT22;5100;45.176;5.714;2023-04-03T03:46:02;13.20;71.40
10121;DHT22;5100;45.176;5.714;2023-04-03T03:48:28;13.20;71.50
10121;DHT22;5100;45.176;5.714;2023-04-03T03:50:55;13.20;71.40
10121;DHT22;5100;45.176;5.714;2023-04-03T03:53:22;13.20;71.40
10121;DHT22;5100;45.176;5.714;2023-04-03T03:55:49;13.20;71.40
10121;DHT22;5100;45.176;5.714;2023-04-03T03:58:15;13.20;71.40
10121;DHT22;5100;45.176;5.714;2023-04-03T04:00:42;13.20;71.50
10121;DHT22;5100;45.176;5.714;2023-04-03T04:03:08;13.10;71.50
10121;DHT22;5100;45.176;5.714;2023-04-03T04:05:35;13.10;71.50
10121;DHT22;5100;45.176;5.714;2023-04-03T04:08:01;13.20;71.50
10121;DHT22;5100;45.176;5.714;2023-04-03T04:10:27;13.10;71.50
10121;DHT22;5100;45.176;5.714;2023-04-03T04:12:54;13.10;71.40
10121;DHT22;5100;45.176;5.714;2023-04-03T04:15:20;13.10;71.40
10121;DHT22;5100;45.176;5.714;2023-04-03T04:17:48;13.10;71.30
10121;DHT22;5100;45.176;5.714;2023-04-03T04:20:15;13.10;71.20
10121;DHT22;5100;45.176;5.714;2023-04-03T04:22:41;13.10;70.90
10121;DHT22;5100;45.176;5.714;2023-04-03T04:25:08;13.10;70.90
10121;DHT22;5100;45.176;5.714;2023-04-03T04:27:35;13.10;71.00
10121;DHT22;5100;45.176;5.714;2023-04-03T04:30:03;13.10;70.80
10121;DHT22;5100;45.176;5.714;2023-04-03T04:32:31;13.10;70.90
10121;DHT22;5100;45.176;5.714;2023-04-03T04:34:57;13.10;70.80
10121;DHT22;5100;45.176;5.714;2023-04-03T04:37:23;13.10;70.90
10121;DHT22;5100;45.176;5.714;2023-04-03T04:39:51;13.10;70.70
10121;DHT22;5100;45.176;5.714;2023-04-03T04:42:18;13.10;70.70
10121;DHT22;5100;45.176;5.714;2023-04-03T04:44:51;13.10;70.60
10121;DHT22;5100;45.176;5.714;2023-04-03T04:47:18;13.10;70.50
10121;DHT22;5100;45.176;5.714;2023-04-03T04:49:44;13.10;70.60
10121;DHT22;5100;45.176;5.714;2023-04-03T04:52:11;13.10;70.70
10121;DHT22;5100;45.176;5.714;2023-04-03T04:54:38;13.10;70.80
10121;DHT22;5100;45.176;5.714;2023-04-03T04:57:05;13.10;70.80
10121;DHT22;5100;45.176;5.714;2023-04-03T04:59:31;13.10;70.70
10121;DHT22;5100;45.176;5.714;2023-04-03T05:01:57;13.10;70.90
10121;DHT22;5100;45.176;5.714;2023-04-03T05:04:25;13.10;71.00
10121;DHT22;5100;45.176;5.714;2023-04-03T05:06:51;13.10;71.00
10121;DHT22;5100;45.176;5.714;2023-04-03T05:09:19;13.10;71.00
10121;DHT22;5100;45.176;5.714;2023-04-03T05:11:46;13.10;70.90
10121;DHT22;5100;45.176;5.714;2023-04-03T05:14:13;13.10;70.70
10121;DHT22;5100;45.176;5.714;2023-04-03T05:16:40;13.10;70.70
10121;DHT22;5100;45.176;5.714;2023-04-03T05:19:06;13.10;70.80
10121;DHT22;5100;45.176;5.714;2023-04-03T05:21:33;13.10;70.70
10121;DHT22;5100;45.176;5.714;2023-04-03T05:24:01;13.10;70.70
10121;DHT22;5100;45.176;5.714;2023-04-03T05:26:31;13.10;70.80
10121;DHT22;5100;45.176;5.714;2023-04-03T05:28:57;13.10;70.80
10121;DHT22;5100;45.176;5.714;2023-04-03T05:31:25;13.10;70.60
10121;DHT22;5100;45.176;5.714;2023-04-03T05:33:51;13.10;70.60
10121;DHT22;5100;45.176;5.714;2023-04-03T05:36:18;13.10;70.70
10121;DHT22;5100;45.176;5.714;2023-04-03T05:38:46;13.10;70.70
10121;DHT22;5100;45.176;5.714;2023-04-03T05:41:13;13.10;70.50
10121;DHT22;5100;45.176;5.714;2023-04-03T05:43:40;13.10;70.40
10121;DHT22;5100;45.176;5.714;2023-04-03T05:46:17;13.20;70.50
10121;DHT22;5100;45.176;5.714;2023-04-03T05:48:44;13.20;70.40
10121;DHT22;5100;45.176;5.714;2023-04-03T05:51:18;13.20;70.40
10121;DHT22;5100;45.176;5.714;2023-04-03T05:53:45;13.20;70.50
10121;DHT22;5100;45.176;5.714;2023-04-03T05:56:13;13.20;70.50
10121;DHT22;5100;45.176;5.714;2023-04-03T05:58:40;13.20;70.50
10121;DHT22;5100;45.176;5.714;2023-04-03T06:01:06;13.20;70.40
10121;DHT22;5100;45.176;5.714;2023-04-03T06:03:32;13.30;70.60
10121;DHT22;5100;45.176;5.714;2023-04-03T06:05:59;13.20;70.60
10121;DHT22;5100;45.176;5.714;2023-04-03T06:08:25;13.30;70.80
10121;DHT22;5100;45.176;5.714;2023-04-03T06:10:51;13.30;70.70
10121;DHT22;5100;45.176;5.714;2023-04-03T06:13:18;13.30;70.80
10121;DHT22;5100;45.176;5.714;2023-04-03T06:15:44;13.30;70.80
10121;DHT22;5100;45.176;5.714;2023-04-03T06:18:10;13.40;70.80
10121;DHT22;5100;45.176;5.714;2023-04-03T06:20:36;13.40;70.80
10121;DHT22;5100;45.176;5.714;2023-04-03T06:23:03;13.40;70.90
10121;DHT22;5100;45.176;5.714;2023-04-03T06:25:29;13.40;70.90
10121;DHT22;5100;45.176;5.714;2023-04-03T06:27:55;13.40;70.80
10121;DHT22;5100;45.176;5.714;2023-04-03T06:30:21;13.40;71.00
10121;DHT22;5100;45.176;5.714;2023-04-03T06:32:48;13.40;71.20
10121;DHT22;5100;45.176;5.714;2023-04-03T06:35:14;13.40;71.30
10121;DHT22;5100;45.176;5.714;2023-04-03T06:37:41;13.40;71.30
10121;DHT22;5100;45.176;5.714;2023-04-03T06:40:17;13.40;71.30
10121;DHT22;5100;45.176;5.714;2023-04-03T06:42:44;13.50;71.10
10121;DHT22;5100;45.176;5.714;2023-04-03T06:45:11;13.50;70.90
10121;DHT22;5100;45.176;5.714;2023-04-03T06:47:37;13.50;71.00
10121;DHT22;5100;45.176;5.714;2023-04-03T06:50:04;13.50;71.00
10121;DHT22;5100;45.176;5.714;2023-04-03T06:52:30;13.60;70.80
10121;DHT22;5100;45.176;5.714;2023-04-03T06:54:56;13.60;70.50
10121;DHT22;5100;45.176;5.714;2023-04-03T06:57:25;13.70;70.00
10121;DHT22;5100;45.176;5.714;2023-04-03T06:59:52;13.70;69.60
10121;DHT22;5100;45.176;5.714;2023-04-03T07:02:18;13.80;69.80
10121;DHT22;5100;45.176;5.714;2023-04-03T07:04:44;14.00;69.70
10121;DHT22;5100;45.176;5.714;2023-04-03T07:07:11;14.10;69.40
10121;DHT22;5100;45.176;5.714;2023-04-03T07:09:37;14.20;68.70
10121;DHT22;5100;45.176;5.714;2023-04-03T07:12:03;14.20;68.10
10121;DHT22;5100;45.176;5.714;2023-04-03T07:14:29;14.20;67.90
10121;DHT22;5100;45.176;5.714;2023-04-03T07:16:55;14.20;67.90
10121;DHT22;5100;45.176;5.714;2023-04-03T07:19:21;14.20;67.70
10121;DHT22;5100;45.176;5.714;2023-04-03T07:21:50;14.30;67.70
10121;DHT22;5100;45.176;5.714;2023-04-03T07:24:16;14.20;68.00
10121;DHT22;5100;45.176;5.714;2023-04-03T07:26:42;14.30;68.00
10121;DHT22;5100;45.176;5.714;2023-04-03T07:29:09;14.30;68.00
10121;DHT22;5100;45.176;5.714;2023-04-03T07:31:35;14.30;67.80
10121;DHT22;5100;45.176;5.714;2023-04-03T07:34:02;14.30;67.70
10121;DHT22;5100;45.176;5.714;2023-04-03T07:36:29;14.30;68.10
10121;DHT22;5100;45.176;5.714;2023-04-03T07:38:56;14.30;68.20
10121;DHT22;5100;45.176;5.714;2023-04-03T07:41:22;14.30;67.60
10121;DHT22;5100;45.176;5.714;2023-04-03T07:43:49;14.30;67.60
10121;DHT22;5100;45.176;5.714;2023-04-03T07:46:16;14.40;67.40
10121;DHT22;5100;45.176;5.714;2023-04-03T07:48:43;14.40;67.00
10121;DHT22;5100;45.176;5.714;2023-04-03T07:51:09;14.40;67.00
10121;DHT22;5100;45.176;5.714;2023-04-03T07:53:36;14.40;67.00
10121;DHT22;5100;45.176;5.714;2023-04-03T07:56:02;14.40;67.00
10121;DHT22;5100;45.176;5.714;2023-04-03T07:58:29;14.40;67.10
10121;DHT22;5100;45.176;5.714;2023-04-03T08:00:55;14.40;67.10
10121;DHT22;5100;45.176;5.714;2023-04-03T08:03:22;14.40;66.90
10121;DHT22;5100;45.176;5.714;2023-04-03T08:05:49;14.40;67.00
10121;DHT22;5100;45.176;5.714;2023-04-03T08:08:18;14.40;67.00
10121;DHT22;5100;45.176;5.714;2023-04-03T08:10:51;14.40;67.10
10121;DHT22;5100;45.176;5.714;2023-04-03T08:13:18;14.40;67.00
10121;DHT22;5100;45.176;5.714;2023-04-03T08:15:44;14.30;67.20
10121;DHT22;5100;45.176;5.714;2023-04-03T08:18:10;14.40;67.00
10121;DHT22;5100;45.176;5.714;2023-04-03T08:20:38;14.40;67.20
10121;DHT22;5100;45.176;5.714;2023-04-03T08:23:04;14.40;67.30
10121;DHT22;5100;45.176;5.714;2023-04-03T08:25:31;14.40;67.20
10121;DHT22;5100;45.176;5.714;2023-04-03T08:27:57;14.40;67.30
10121;DHT22;5100;45.176;5.714;2023-04-03T08:30:23;14.40;67.20
10121;DHT22;5100;45.176;5.714;2023-04-03T08:32:51;14.40;67.20
10121;DHT22;5100;45.176;5.714;2023-04-03T08:35:17;14.40;67.10
10121;DHT22;5100;45.176;5.714;2023-04-03T08:37:43;14.40;66.90
10121;DHT22;5100;45.176;5.714;2023-04-03T08:40:15;14.40;67.00
10121;DHT22;5100;45.176;5.714;2023-04-03T08:45:50;14.40;67.20
10121;DHT22;5100;45.176;5.714;2023-04-03T08:50:50;14.40;67.30
10121;DHT22;5100;45.176;5.714;2023-04-03T08:53:30;14.50;67.50
10121;DHT22;5100;45.176;5.714;2023-04-03T08:56:02;14.50;67.80
10121;DHT22;5100;45.176;5.714;2023-04-03T08:58:35;14.50;67.70
10121;DHT22;5100;45.176;5.714;2023-04-03T09:03:47;14.60;67.60
10121;DHT22;5100;45.176;5.714;2023-04-03T09:06:19;14.60;67.60
10121;DHT22;5100;45.176;5.714;2023-04-03T09:09:15;14.60;67.80
10121;DHT22;5100;45.176;5.714;2023-04-03T09:18:03;14.70;67.50
10121;DHT22;5100;45.176;5.714;2023-04-03T09:22:57;14.70;66.70
10121;DHT22;5100;45.176;5.714;2023-04-03T09:25:27;14.80;66.60
10121;DHT22;5100;45.176;5.714;2023-04-03T09:27:53;14.80;66.20
10121;DHT22;5100;45.176;5.714;2023-04-03T09:30:23;14.80;66.30
10121;DHT22;5100;45.176;5.714;2023-04-03T09:32:52;14.80;66.20
10121;DHT22;5100;45.176;5.714;2023-04-03T09:35:20;14.80;66.20
10121;DHT22;5100;45.176;5.714;2023-04-03T09:37:50;14.80;66.20
10121;DHT22;5100;45.176;5.714;2023-04-03T09:42:58;14.90;66.40
10121;DHT22;5100;45.176;5.714;2023-04-03T09:45:27;14.90;66.50
10121;DHT22;5100;45.176;5.714;2023-04-03T09:50:36;14.90;66.80
10121;DHT22;5100;45.176;5.714;2023-04-03T09:53:07;14.90;67.00
10121;DHT22;5100;45.176;5.714;2023-04-03T09:55:42;14.90;66.90
10121;DHT22;5100;45.176;5.714;2023-04-03T09:58:27;14.90;66.80
10121;DHT22;5100;45.176;5.714;2023-04-03T10:00:56;14.90;66.80
10121;DHT22;5100;45.176;5.714;2023-04-03T10:03:32;14.90;66.40
10121;DHT22;5100;45.176;5.714;2023-04-03T10:05:58;15.00;66.40
10121;DHT22;5100;45.176;5.714;2023-04-03T10:08:31;15.00;66.50
10121;DHT22;5100;45.176;5.714;2023-04-03T10:11:11;15.00;66.50
10121;DHT22;5100;45.176;5.714;2023-04-03T10:13:53;15.00;66.40
10121;DHT22;5100;45.176;5.714;2023-04-03T10:16:24;15.10;66.00
10121;DHT22;5100;45.176;5.714;2023-04-03T10:21:55;15.10;65.10
10121;DHT22;5100;45.176;5.714;2023-04-03T10:24:44;15.10;64.30
10121;DHT22;5100;45.176;5.714;2023-04-03T10:27:30;15.10;64.00
10121;DHT22;5100;45.176;5.714;2023-04-03T10:33:12;15.10;63.80
10121;DHT22;5100;45.176;5.714;2023-04-03T10:38:43;15.10;63.60
10121;DHT22;5100;45.176;5.714;2023-04-03T10:41:52;15.10;63.60
10121;DHT22;5100;45.176;5.714;2023-04-03T10:44:42;15.10;63.80
10121;DHT22;5100;45.176;5.714;2023-04-03T10:47:19;15.10;63.80
10121;DHT22;5100;45.176;5.714;2023-04-03T10:50:11;15.10;63.60
10121;DHT22;5100;45.176;5.714;2023-04-03T10:55:43;15.10;63.60
10121;DHT22;5100;45.176;5.714;2023-04-03T11:01:02;15.20;63.00
10121;DHT22;5100;45.176;5.714;2023-04-03T11:03:36;15.20;63.40
10121;DHT22;5100;45.176;5.714;2023-04-03T11:06:07;15.20;63.20
10121;DHT22;5100;45.176;5.714;2023-04-03T11:08:41;15.20;62.60
10121;DHT22;5100;45.176;5.714;2023-04-03T11:11:11;15.20;62.00
10121;DHT22;5100;45.176;5.714;2023-04-03T11:13:58;15.20;61.80
10121;DHT22;5100;45.176;5.714;2023-04-03T11:16:29;15.20;61.90
10121;DHT22;5100;45.176;5.714;2023-04-03T11:19:02;15.20;62.00
10121;DHT22;5100;45.176;5.714;2023-04-03T11:21:33;15.30;62.20
10121;DHT22;5100;45.176;5.714;2023-04-03T11:24:03;15.30;61.90
10121;DHT22;5100;45.176;5.714;2023-04-03T11:26:37;15.30;61.50
10121;DHT22;5100;45.176;5.714;2023-04-03T11:29:13;15.40;61.70
10121;DHT22;5100;45.176;5.714;2023-04-03T11:34:37;15.40;61.20
10121;DHT22;5100;45.176;5.714;2023-04-03T11:40:00;15.50;61.00
10121;DHT22;5100;45.176;5.714;2023-04-03T11:46:03;15.50;60.30
10121;DHT22;5100;45.176;5.714;2023-04-03T11:50:57;15.40;60.90
10121;DHT22;5100;45.176;5.714;2023-04-03T11:53:32;15.40;61.10
10121;DHT22;5100;45.176;5.714;2023-04-03T11:56:01;15.40;60.70
10121;DHT22;5100;45.176;5.714;2023-04-03T11:58:33;15.40;60.40
10121;DHT22;5100;45.176;5.714;2023-04-03T12:16:27;15.60;59.90
10121;DHT22;5100;45.176;5.714;2023-04-03T12:35:01;15.70;59.20
10121;DHT22;5100;45.176;5.714;2023-04-03T12:45:44;15.80;59.40
10121;DHT22;5100;45.176;5.714;2023-04-03T12:48:15;15.80;59.50
10121;DHT22;5100;45.176;5.714;2023-04-03T12:50:45;15.80;59.30
10121;DHT22;5100;45.176;5.714;2023-04-03T12:53:22;15.90;59.10
10121;DHT22;5100;45.176;5.714;2023-04-03T12:55:55;15.90;59.10
10121;DHT22;5100;45.176;5.714;2023-04-03T12:58:26;15.90;59.40
10121;DHT22;5100;45.176;5.714;2023-04-03T13:01:08;15.90;59.70
10121;DHT22;5100;45.176;5.714;2023-04-03T13:03:39;15.90;59.80
10121;DHT22;5100;45.176;5.714;2023-04-03T13:06:06;15.90;59.80
10121;DHT22;5100;45.176;5.714;2023-04-03T13:08:33;15.90;60.20
10121;DHT22;5100;45.176;5.714;2023-04-03T13:11:09;15.90;60.50
10121;DHT22;5100;45.176;5.714;2023-04-03T13:13:37;15.90;60.70
10121;DHT22;5100;45.176;5.714;2023-04-03T13:16:11;16.00;60.60
10121;DHT22;5100;45.176;5.714;2023-04-03T13:18:39;15.90;60.40
10121;DHT22;5100;45.176;5.714;2023-04-03T13:21:08;15.90;60.70
10121;DHT22;5100;45.176;5.714;2023-04-03T13:23:40;15.90;60.80
10121;DHT22;5100;45.176;5.714;2023-04-03T13:26:08;15.90;60.80
10121;DHT22;5100;45.176;5.714;2023-04-03T13:28:35;15.90;60.80
10121;DHT22;5100;45.176;5.714;2023-04-03T13:31:06;15.90;60.80
10121;DHT22;5100;45.176;5.714;2023-04-03T13:33:34;15.90;60.90
10121;DHT22;5100;45.176;5.714;2023-04-03T13:36:21;15.90;61.00
10121;DHT22;5100;45.176;5.714;2023-04-03T13:38:59;15.80;61.10
10121;DHT22;5100;45.176;5.714;2023-04-03T13:41:32;15.80;60.90
10121;DHT22;5100;45.176;5.714;2023-04-03T13:46:49;15.80;60.40
10121;DHT22;5100;45.176;5.714;2023-04-03T13:49:35;15.80;60.70
10121;DHT22;5100;45.176;5.714;2023-04-03T13:52:28;15.80;61.10
10121;DHT22;5100;45.176;5.714;2023-04-03T13:54:59;15.80;61.10
10121;DHT22;5100;45.176;5.714;2023-04-03T13:57:25;15.80;60.80
10121;DHT22;5100;45.176;5.714;2023-04-03T13:59:53;15.80;60.70
10121;DHT22;5100;45.176;5.714;2023-04-03T14:02:22;15.90;60.60
10121;DHT22;5100;45.176;5.714;2023-04-03T14:04:56;15.90;61.00
10121;DHT22;5100;45.176;5.714;2023-04-03T14:07:25;15.90;61.10
10121;DHT22;5100;45.176;5.714;2023-04-03T14:09:52;15.90;61.00
10121;DHT22;5100;45.176;5.714;2023-04-03T14:12:33;15.90;60.90
10121;DHT22;5100;45.176;5.714;2023-04-03T14:15:01;15.90;60.80
10121;DHT22;5100;45.176;5.714;2023-04-03T14:17:28;15.90;60.90
10121;DHT22;5100;45.176;5.714;2023-04-03T14:19:55;15.90;60.60
10121;DHT22;5100;45.176;5.714;2023-04-03T14:22:25;16.00;60.50
10121;DHT22;5100;45.176;5.714;2023-04-03T14:24:52;16.00;60.40
10121;DHT22;5100;45.176;5.714;2023-04-03T14:27:21;15.90;60.50
10121;DHT22;5100;45.176;5.714;2023-04-03T14:29:49;15.90;60.90
10121;DHT22;5100;45.176;5.714;2023-04-03T14:32:17;15.90;60.80
10121;DHT22;5100;45.176;5.714;2023-04-03T14:34:44;15.90;61.20
10121;DHT22;5100;45.176;5.714;2023-04-03T14:37:15;15.90;61.50
10121;DHT22;5100;45.176;5.714;2023-04-03T14:39:42;15.90;61.50
10121;DHT22;5100;45.176;5.714;2023-04-03T14:42:13;15.80;61.40
10121;DHT22;5100;45.176;5.714;2023-04-03T14:44:41;15.90;61.20
10121;DHT22;5100;45.176;5.714;2023-04-03T14:47:21;15.80;61.40
10121;DHT22;5100;45.176;5.714;2023-04-03T14:49:49;15.80;61.50
10121;DHT22;5100;45.176;5.714;2023-04-03T14:52:22;15.80;60.90
10121;DHT22;5100;45.176;5.714;2023-04-03T14:54:49;15.80;60.90
10121;DHT22;5100;45.176;5.714;2023-04-03T14:57:16;15.70;61.10
10121;DHT22;5100;45.176;5.714;2023-04-03T14:59:44;15.80;61.40
10121;DHT22;5100;45.176;5.714;2023-04-03T15:04:49;15.70;61.50
10121;DHT22;5100;45.176;5.714;2023-04-03T15:07:16;15.70;61.30
10121;DHT22;5100;45.176;5.714;2023-04-03T15:09:42;15.70;61.10
10121;DHT22;5100;45.176;5.714;2023-04-03T15:12:09;15.70;61.00
10121;DHT22;5100;45.176;5.714;2023-04-03T15:14:36;15.70;61.10
10121;DHT22;5100;45.176;5.714;2023-04-03T15:17:05;15.70;61.50
10121;DHT22;5100;45.176;5.714;2023-04-03T15:19:38;15.70;61.60
10121;DHT22;5100;45.176;5.714;2023-04-03T15:22:05;15.70;61.30
10121;DHT22;5100;45.176;5.714;2023-04-03T15:24:31;15.70;61.40
10121;DHT22;5100;45.176;5.714;2023-04-03T15:26:58;15.70;61.00
10121;DHT22;5100;45.176;5.714;2023-04-03T15:29:26;15.70;61.00
10121;DHT22;5100;45.176;5.714;2023-04-03T15:31:52;15.70;61.20
10121;DHT22;5100;45.176;5.714;2023-04-03T15:34:19;15.70;61.50
10121;DHT22;5100;45.176;5.714;2023-04-03T15:36:47;15.70;61.50
10121;DHT22;5100;45.176;5.714;2023-04-03T15:39:13;15.70;61.70
10121;DHT22;5100;45.176;5.714;2023-04-03T15:41:39;15.70;61.60
10121;DHT22;5100;45.176;5.714;2023-04-03T15:44:06;15.70;61.60
10121;DHT22;5100;45.176;5.714;2023-04-03T15:46:32;15.70;61.40
10121;DHT22;5100;45.176;5.714;2023-04-03T15:48:58;15.70;61.20
10121;DHT22;5100;45.176;5.714;2023-04-03T15:51:25;15.70;61.20
10121;DHT22;5100;45.176;5.714;2023-04-03T15:53:51;15.70;61.10
10121;DHT22;5100;45.176;5.714;2023-04-03T15:56:17;15.70;60.90
10121;DHT22;5100;45.176;5.714;2023-04-03T15:58:43;15.70;61.10
10121;DHT22;5100;45.176;5.714;2023-04-03T16:01:10;15.70;61.20
10121;DHT22;5100;45.176;5.714;2023-04-03T16:03:40;15.70;61.20
10121;DHT22;5100;45.176;5.714;2023-04-03T16:06:18;15.70;61.60
10121;DHT22;5100;45.176;5.714;2023-04-03T16:08:46;15.70;61.20
10121;DHT22;5100;45.176;5.714;2023-04-03T16:11:13;15.70;61.40
10121;DHT22;5100;45.176;5.714;2023-04-03T16:13:39;15.70;61.40
10121;DHT22;5100;45.176;5.714;2023-04-03T16:16:07;15.60;61.50
10121;DHT22;5100;45.176;5.714;2023-04-03T16:18:34;15.60;61.70
10121;DHT22;5100;45.176;5.714;2023-04-03T16:21:01;15.60;61.90
10121;DHT22;5100;45.176;5.714;2023-04-03T16:23:28;15.60;61.80
10121;DHT22;5100;45.176;5.714;2023-04-03T16:25:54;15.60;61.70
10121;DHT22;5100;45.176;5.714;2023-04-03T16:28:20;15.60;61.90
10121;DHT22;5100;45.176;5.714;2023-04-03T16:30:47;15.60;61.70
10121;DHT22;5100;45.176;5.714;2023-04-03T16:33:15;15.60;61.40
10121;DHT22;5100;45.176;5.714;2023-04-03T16:35:41;15.60;61.60
10121;DHT22;5100;45.176;5.714;2023-04-03T16:38:10;15.50;61.90
10121;DHT22;5100;45.176;5.714;2023-04-03T16:40:36;15.50;61.90
10121;DHT22;5100;45.176;5.714;2023-04-03T16:43:02;15.50;61.80
10121;DHT22;5100;45.176;5.714;2023-04-03T16:45:29;15.60;61.70
10121;DHT22;5100;45.176;5.714;2023-04-03T16:47:55;15.60;61.70
10121;DHT22;5100;45.176;5.714;2023-04-03T16:50:21;15.60;61.30
10121;DHT22;5100;45.176;5.714;2023-04-03T16:52:47;15.60;61.40
10121;DHT22;5100;45.176;5.714;2023-04-03T16:55:13;15.50;61.40
10121;DHT22;5100;45.176;5.714;2023-04-03T16:57:39;15.50;61.40
10121;DHT22;5100;45.176;5.714;2023-04-03T17:00:07;15.50;61.50
10121;DHT22;5100;45.176;5.714;2023-04-03T17:02:34;15.50;61.50
10121;DHT22;5100;45.176;5.714;2023-04-03T17:05:00;15.50;61.30
10121;DHT22;5100;45.176;5.714;2023-04-03T17:07:26;15.50;61.40
10121;DHT22;5100;45.176;5.714;2023-04-03T17:09:52;15.40;61.60
10121;DHT22;5100;45.176;5.714;2023-04-03T17:12:20;15.40;61.70
10121;DHT22;5100;45.176;5.714;2023-04-03T17:14:47;15.40;61.80
10121;DHT22;5100;45.176;5.714;2023-04-03T17:17:14;15.30;61.90
10121;DHT22;5100;45.176;5.714;2023-04-03T17:19:41;15.30;61.80
10121;DHT22;5100;45.176;5.714;2023-04-03T17:22:09;15.30;61.80
10121;DHT22;5100;45.176;5.714;2023-04-03T17:24:35;15.30;61.70
10121;DHT22;5100;45.176;5.714;2023-04-03T17:27:02;15.20;61.40
10121;DHT22;5100;45.176;5.714;2023-04-03T17:29:28;15.20;61.60
10121;DHT22;5100;45.176;5.714;2023-04-03T17:31:54;15.20;61.50
10121;DHT22;5100;45.176;5.714;2023-04-03T17:34:21;15.20;61.10